sensor_id;sensor_type;location;lat;lon;timestamp;P1;durP1;ratioP1;P2;durP2;ratioP2
65855;SDS011;52631;42.208;24.656;2023-11-22T00:00:52;19.75;;;9.85;;
65855;SDS011;52631;42.208;24.656;2023-11-22T00:03:17;17.70;;;10.02;;
65855;SDS011;52631;42.208;24.656;2023-11-22T00:05:44;17.50;;;9.32;;
65855;SDS011;52631;42.208;24.656;2023-11-22T00:08:09;16.45;;;8.70;;
65855;SDS011;52631;42.208;24.656;2023-11-22T00:10:35;19.33;;;10.40;;
65855;SDS011;52631;42.208;24.656;2023-11-22T00:13:00;16.10;;;9.10;;
65855;SDS011;52631;42.208;24.656;2023-11-22T00:15:25;18.30;;;9.30;;
65855;SDS011;52631;42.208;24.656;2023-11-22T00:17:51;16.90;;;9.40;;
65855;SDS011;52631;42.208;24.656;2023-11-22T00:20:18;15.63;;;8.48;;
65855;SDS011;52631;42.208;24.656;2023-11-22T00:22:43;17.35;;;9.30;;
65855;SDS011;52631;42.208;24.656;2023-11-22T00:25:10;15.55;;;9.35;;
65855;SDS011;52631;42.208;24.656;2023-11-22T00:27:38;14.15;;;8.38;;
65855;SDS011;52631;42.208;24.656;2023-11-22T00:30:03;15.40;;;7.82;;
65855;SDS011;52631;42.208;24.656;2023-11-22T00:32:29;19.25;;;9.77;;
65855;SDS011;52631;42.208;24.656;2023-11-22T00:34:55;20.63;;;10.07;;
65855;SDS011;52631;42.208;24.656;2023-11-22T00:37:20;25.13;;;11.85;;
65855;SDS011;52631;42.208;24.656;2023-11-22T00:39:46;22.95;;;11.27;;
65855;SDS011;52631;42.208;24.656;2023-11-22T00:42:11;23.95;;;11.82;;
65855;SDS011;52631;42.208;24.656;2023-11-22T00:44:37;33.78;;;15.07;;
65855;SDS011;52631;42.208;24.656;2023-11-22T00:47:02;31.17;;;14.02;;
65855;SDS011;52631;42.208;24.656;2023-11-22T00:49:28;30.13;;;14.18;;
65855;SDS011;52631;42.208;24.656;2023-11-22T00:54:29;33.80;;;14.55;;
65855;SDS011;52631;42.208;24.656;2023-11-22T00:56:55;44.80;;;16.77;;
65855;SDS011;52631;42.208;24.656;2023-11-22T00:59:21;41.30;;;17.88;;
65855;SDS011;52631;42.208;24.656;2023-11-22T01:01:46;24.88;;;13.88;;
65855;SDS011;52631;42.208;24.656;2023-11-22T01:04:12;20.83;;;11.70;;
65855;SDS011;52631;42.208;24.656;2023-11-22T01:06:38;22.42;;;12.50;;
65855;SDS011;52631;42.208;24.656;2023-11-22T01:09:05;21.08;;;12.45;;
65855;SDS011;52631;42.208;24.656;2023-11-22T01:11:33;22.27;;;12.48;;
65855;SDS011;52631;42.208;24.656;2023-11-22T01:13:59;23.55;;;12.20;;
65855;SDS011;52631;42.208;24.656;2023-11-22T01:16:25;20.88;;;12.02;;
65855;SDS011;52631;42.208;24.656;2023-11-22T01:18:50;22.70;;;11.93;;
65855;SDS011;52631;42.208;24.656;2023-11-22T01:21:17;19.58;;;11.80;;
65855;SDS011;52631;42.208;24.656;2023-11-22T01:23:44;20.48;;;11.50;;
65855;SDS011;52631;42.208;24.656;2023-11-22T01:26:11;18.80;;;10.70;;
65855;SDS011;52631;42.208;24.656;2023-11-22T01:28:37;17.05;;;10.05;;
65855;SDS011;52631;42.208;24.656;2023-11-22T01:31:05;16.45;;;10.05;;
65855;SDS011;52631;42.208;24.656;2023-11-22T01:33:31;15.82;;;10.00;;
65855;SDS011;52631;42.208;24.656;2023-11-22T01:35:57;17.60;;;9.00;;
65855;SDS011;52631;42.208;24.656;2023-11-22T01:38:22;18.70;;;9.20;;
65855;SDS011;52631;42.208;24.656;2023-11-22T01:40:50;17.48;;;9.48;;
65855;SDS011;52631;42.208;24.656;2023-11-22T01:43:17;16.17;;;8.77;;
65855;SDS011;52631;42.208;24.656;2023-11-22T01:45:43;15.75;;;8.80;;
65855;SDS011;52631;42.208;24.656;2023-11-22T01:48:10;14.15;;;8.43;;
65855;SDS011;52631;42.208;24.656;2023-11-22T01:50:39;13.45;;;8.23;;
65855;SDS011;52631;42.208;24.656;2023-11-22T01:53:06;14.45;;;8.52;;
65855;SDS011;52631;42.208;24.656;2023-11-22T01:55:32;14.80;;;8.68;;
65855;SDS011;52631;42.208;24.656;2023-11-22T01:57:59;13.63;;;7.50;;
65855;SDS011;52631;42.208;24.656;2023-11-22T02:00:24;16.60;;;8.40;;
65855;SDS011;52631;42.208;24.656;2023-11-22T02:02:52;14.57;;;7.82;;
65855;SDS011;52631;42.208;24.656;2023-11-22T02:05:18;12.25;;;7.03;;
65855;SDS011;52631;42.208;24.656;2023-11-22T02:07:44;11.27;;;6.97;;
65855;SDS011;52631;42.208;24.656;2023-11-22T02:10:09;14.98;;;7.30;;
65855;SDS011;52631;42.208;24.656;2023-11-22T02:12:35;12.35;;;7.32;;
65855;SDS011;52631;42.208;24.656;2023-11-22T02:15:01;13.40;;;7.50;;
65855;SDS011;52631;42.208;24.656;2023-11-22T02:17:28;10.88;;;6.72;;
65855;SDS011;52631;42.208;24.656;2023-11-22T02:19:54;12.50;;;7.10;;
65855;SDS011;52631;42.208;24.656;2023-11-22T02:22:19;13.18;;;7.72;;
65855;SDS011;52631;42.208;24.656;2023-11-22T02:24:46;13.07;;;7.22;;
65855;SDS011;52631;42.208;24.656;2023-11-22T02:27:12;14.25;;;7.78;;
65855;SDS011;52631;42.208;24.656;2023-11-22T02:29:37;12.52;;;6.75;;
65855;SDS011;52631;42.208;24.656;2023-11-22T02:32:03;14.07;;;7.60;;
65855;SDS011;52631;42.208;24.656;2023-11-22T02:34:29;13.13;;;7.15;;
65855;SDS011;52631;42.208;24.656;2023-11-22T02:36:54;13.35;;;7.47;;
65855;SDS011;52631;42.208;24.656;2023-11-22T02:39:20;12.55;;;7.20;;
65855;SDS011;52631;42.208;24.656;2023-11-22T02:41:46;13.02;;;6.97;;
65855;SDS011;52631;42.208;24.656;2023-11-22T02:44:11;15.55;;;7.53;;
65855;SDS011;52631;42.208;24.656;2023-11-22T02:46:42;15.85;;;8.77;;
65855;SDS011;52631;42.208;24.656;2023-11-22T02:49:07;15.20;;;8.38;;
65855;SDS011;52631;42.208;24.656;2023-11-22T02:51:35;21.63;;;10.20;;
65855;SDS011;52631;42.208;24.656;2023-11-22T02:54:01;24.33;;;11.77;;
65855;SDS011;52631;42.208;24.656;2023-11-22T02:56:27;19.80;;;11.32;;
65855;SDS011;52631;42.208;24.656;2023-11-22T02:58:52;20.70;;;10.45;;
65855;SDS011;52631;42.208;24.656;2023-11-22T03:01:18;17.55;;;10.77;;
65855;SDS011;52631;42.208;24.656;2023-11-22T03:03:44;17.92;;;9.70;;
65855;SDS011;52631;42.208;24.656;2023-11-22T03:06:09;17.85;;;10.93;;
65855;SDS011;52631;42.208;24.656;2023-11-22T03:08:35;17.95;;;10.90;;
65855;SDS011;52631;42.208;24.656;2023-11-22T03:11:00;20.20;;;10.77;;
65855;SDS011;52631;42.208;24.656;2023-11-22T03:13:27;19.05;;;10.05;;
65855;SDS011;52631;42.208;24.656;2023-11-22T03:15:53;19.58;;;10.98;;
65855;SDS011;52631;42.208;24.656;2023-11-22T03:18:18;18.40;;;11.43;;
65855;SDS011;52631;42.208;24.656;2023-11-22T03:20:46;19.10;;;10.10;;
65855;SDS011;52631;42.208;24.656;2023-11-22T03:23:12;19.40;;;11.05;;
65855;SDS011;52631;42.208;24.656;2023-11-22T03:25:38;21.77;;;11.23;;
65855;SDS011;52631;42.208;24.656;2023-11-22T03:28:03;21.10;;;12.10;;
65855;SDS011;52631;42.208;24.656;2023-11-22T03:30:29;21.25;;;11.77;;
65855;SDS011;52631;42.208;24.656;2023-11-22T03:32:54;18.45;;;11.40;;
65855;SDS011;52631;42.208;24.656;2023-11-22T03:35:20;24.75;;;12.43;;
65855;SDS011;52631;42.208;24.656;2023-11-22T03:37:46;19.52;;;11.13;;
65855;SDS011;52631;42.208;24.656;2023-11-22T03:40:12;18.77;;;11.77;;
65855;SDS011;52631;42.208;24.656;2023-11-22T03:42:39;22.70;;;12.48;;
65855;SDS011;52631;42.208;24.656;2023-11-22T03:45:05;24.70;;;12.05;;
65855;SDS011;52631;42.208;24.656;2023-11-22T03:47:31;24.27;;;13.30;;
65855;SDS011;52631;42.208;24.656;2023-11-22T03:49:58;23.90;;;12.43;;
65855;SDS011;52631;42.208;24.656;2023-11-22T03:52:24;25.80;;;12.95;;
65855;SDS011;52631;42.208;24.656;2023-11-22T03:54:51;25.85;;;11.90;;
65855;SDS011;52631;42.208;24.656;2023-11-22T03:57:17;22.73;;;12.35;;
65855;SDS011;52631;42.208;24.656;2023-11-22T03:59:43;24.52;;;13.18;;
65855;SDS011;52631;42.208;24.656;2023-11-22T04:02:08;23.60;;;11.90;;
65855;SDS011;52631;42.208;24.656;2023-11-22T04:04:34;22.45;;;12.85;;
65855;SDS011;52631;42.208;24.656;2023-11-22T04:07:01;22.20;;;11.85;;
65855;SDS011;52631;42.208;24.656;2023-11-22T04:09:27;20.70;;;12.10;;
65855;SDS011;52631;42.208;24.656;2023-11-22T04:11:54;23.58;;;12.82;;
65855;SDS011;52631;42.208;24.656;2023-11-22T04:14:20;23.23;;;12.23;;
65855;SDS011;52631;42.208;24.656;2023-11-22T04:16:46;23.42;;;12.90;;
65855;SDS011;52631;42.208;24.656;2023-11-22T04:19:12;30.33;;;13.80;;
65855;SDS011;52631;42.208;24.656;2023-11-22T04:21:38;22.55;;;12.95;;
65855;SDS011;52631;42.208;24.656;2023-11-22T04:24:04;21.80;;;12.82;;
65855;SDS011;52631;42.208;24.656;2023-11-22T04:26:30;29.00;;;14.35;;
65855;SDS011;52631;42.208;24.656;2023-11-22T04:28:55;27.40;;;14.02;;
65855;SDS011;52631;42.208;24.656;2023-11-22T04:31:21;23.98;;;13.52;;
65855;SDS011;52631;42.208;24.656;2023-11-22T04:33:46;22.85;;;11.90;;
65855;SDS011;52631;42.208;24.656;2023-11-22T04:36:12;25.00;;;13.27;;
65855;SDS011;52631;42.208;24.656;2023-11-22T04:38:38;20.35;;;11.20;;
65855;SDS011;52631;42.208;24.656;2023-11-22T04:41:03;19.48;;;10.77;;
65855;SDS011;52631;42.208;24.656;2023-11-22T04:43:29;22.45;;;11.82;;
65855;SDS011;52631;42.208;24.656;2023-11-22T04:45:54;19.65;;;11.05;;
65855;SDS011;52631;42.208;24.656;2023-11-22T04:48:20;18.38;;;10.48;;
65855;SDS011;52631;42.208;24.656;2023-11-22T04:50:45;15.18;;;7.07;;
65855;SDS011;52631;42.208;24.656;2023-11-22T04:53:11;14.80;;;8.43;;
65855;SDS011;52631;42.208;24.656;2023-11-22T04:55:36;13.57;;;8.10;;
65855;SDS011;52631;42.208;24.656;2023-11-22T04:58:02;15.35;;;8.43;;
65855;SDS011;52631;42.208;24.656;2023-11-22T05:00:28;17.70;;;8.18;;
65855;SDS011;52631;42.208;24.656;2023-11-22T05:02:53;15.00;;;7.47;;
65855;SDS011;52631;42.208;24.656;2023-11-22T05:05:19;14.25;;;8.10;;
65855;SDS011;52631;42.208;24.656;2023-11-22T05:07:45;17.08;;;7.65;;
65855;SDS011;52631;42.208;24.656;2023-11-22T05:10:10;12.23;;;7.40;;
65855;SDS011;52631;42.208;24.656;2023-11-22T05:12:36;17.27;;;7.65;;
65855;SDS011;52631;42.208;24.656;2023-11-22T05:15:02;18.15;;;7.82;;
65855;SDS011;52631;42.208;24.656;2023-11-22T05:17:28;13.85;;;7.90;;
65855;SDS011;52631;42.208;24.656;2023-11-22T05:19:53;12.68;;;8.63;;
65855;SDS011;52631;42.208;24.656;2023-11-22T05:22:21;16.30;;;9.35;;
65855;SDS011;52631;42.208;24.656;2023-11-22T05:24:46;15.77;;;9.90;;
65855;SDS011;52631;42.208;24.656;2023-11-22T05:27:11;27.02;;;9.80;;
65855;SDS011;52631;42.208;24.656;2023-11-22T05:29:37;16.02;;;10.30;;
65855;SDS011;52631;42.208;24.656;2023-11-22T05:32:03;13.00;;;8.52;;
65855;SDS011;52631;42.208;24.656;2023-11-22T05:34:29;15.07;;;6.93;;
65855;SDS011;52631;42.208;24.656;2023-11-22T05:36:55;11.70;;;6.68;;
65855;SDS011;52631;42.208;24.656;2023-11-22T05:39:20;15.80;;;6.80;;
65855;SDS011;52631;42.208;24.656;2023-11-22T05:41:50;12.38;;;6.75;;
65855;SDS011;52631;42.208;24.656;2023-11-22T05:44:16;11.18;;;6.03;;
65855;SDS011;52631;42.208;24.656;2023-11-22T05:46:42;10.82;;;7.35;;
65855;SDS011;52631;42.208;24.656;2023-11-22T05:49:07;16.25;;;7.47;;
65855;SDS011;52631;42.208;24.656;2023-11-22T05:51:33;18.80;;;6.95;;
65855;SDS011;52631;42.208;24.656;2023-11-22T05:53:59;13.55;;;8.13;;
65855;SDS011;52631;42.208;24.656;2023-11-22T05:56:24;13.30;;;9.63;;
65855;SDS011;52631;42.208;24.656;2023-11-22T05:58:50;13.88;;;7.88;;
65855;SDS011;52631;42.208;24.656;2023-11-22T06:01:16;14.25;;;7.47;;
65855;SDS011;52631;42.208;24.656;2023-11-22T06:03:41;14.05;;;8.77;;
65855;SDS011;52631;42.208;24.656;2023-11-22T06:06:07;20.92;;;9.60;;
65855;SDS011;52631;42.208;24.656;2023-11-22T06:08:33;23.67;;;10.20;;
65855;SDS011;52631;42.208;24.656;2023-11-22T06:10:59;16.58;;;10.15;;
65855;SDS011;52631;42.208;24.656;2023-11-22T06:13:25;17.60;;;10.27;;
65855;SDS011;52631;42.208;24.656;2023-11-22T06:15:53;17.73;;;9.60;;
65855;SDS011;52631;42.208;24.656;2023-11-22T06:18:19;13.65;;;8.68;;
65855;SDS011;52631;42.208;24.656;2023-11-22T06:20:45;17.83;;;9.40;;
65855;SDS011;52631;42.208;24.656;2023-11-22T06:23:12;17.80;;;9.75;;
65855;SDS011;52631;42.208;24.656;2023-11-22T06:25:38;13.50;;;8.80;;
65855;SDS011;52631;42.208;24.656;2023-11-22T06:28:07;15.65;;;9.05;;
65855;SDS011;52631;42.208;24.656;2023-11-22T06:30:32;12.75;;;8.15;;
65855;SDS011;52631;42.208;24.656;2023-11-22T06:32:59;47.40;;;25.50;;
65855;SDS011;52631;42.208;24.656;2023-11-22T06:35:25;23.67;;;12.30;;
65855;SDS011;52631;42.208;24.656;2023-11-22T06:37:50;18.27;;;10.60;;
65855;SDS011;52631;42.208;24.656;2023-11-22T06:40:16;15.48;;;8.60;;
65855;SDS011;52631;42.208;24.656;2023-11-22T06:42:42;23.75;;;13.13;;
65855;SDS011;52631;42.208;24.656;2023-11-22T06:45:07;15.63;;;9.98;;
65855;SDS011;52631;42.208;24.656;2023-11-22T06:47:35;14.43;;;8.82;;
65855;SDS011;52631;42.208;24.656;2023-11-22T06:50:01;15.27;;;8.40;;
65855;SDS011;52631;42.208;24.656;2023-11-22T06:52:29;16.80;;;8.05;;
65855;SDS011;52631;42.208;24.656;2023-11-22T06:54:54;14.02;;;7.90;;
65855;SDS011;52631;42.208;24.656;2023-11-22T06:57:21;15.05;;;9.95;;
65855;SDS011;52631;42.208;24.656;2023-11-22T06:59:53;16.38;;;9.20;;
65855;SDS011;52631;42.208;24.656;2023-11-22T07:02:19;16.83;;;9.05;;
65855;SDS011;52631;42.208;24.656;2023-11-22T07:04:44;17.67;;;9.75;;
65855;SDS011;52631;42.208;24.656;2023-11-22T07:07:10;17.08;;;10.02;;
65855;SDS011;52631;42.208;24.656;2023-11-22T07:09:36;17.02;;;10.15;;
65855;SDS011;52631;42.208;24.656;2023-11-22T07:12:01;19.38;;;10.52;;
65855;SDS011;52631;42.208;24.656;2023-11-22T07:14:27;15.80;;;9.48;;
65855;SDS011;52631;42.208;24.656;2023-11-22T07:16:54;19.65;;;10.30;;
65855;SDS011;52631;42.208;24.656;2023-11-22T07:19:22;19.17;;;11.38;;
65855;SDS011;52631;42.208;24.656;2023-11-22T07:21:48;22.77;;;10.57;;
65855;SDS011;52631;42.208;24.656;2023-11-22T07:24:13;20.10;;;10.50;;
65855;SDS011;52631;42.208;24.656;2023-11-22T07:26:41;21.60;;;9.50;;
65855;SDS011;52631;42.208;24.656;2023-11-22T07:29:10;18.52;;;9.93;;
65855;SDS011;52631;42.208;24.656;2023-11-22T07:31:37;18.73;;;9.68;;
65855;SDS011;52631;42.208;24.656;2023-11-22T07:34:03;17.83;;;9.55;;
65855;SDS011;52631;42.208;24.656;2023-11-22T07:36:28;17.27;;;9.80;;
65855;SDS011;52631;42.208;24.656;2023-11-22T07:38:55;19.75;;;9.75;;
65855;SDS011;52631;42.208;24.656;2023-11-22T07:41:21;20.00;;;11.02;;
65855;SDS011;52631;42.208;24.656;2023-11-22T07:43:47;19.95;;;9.73;;
65855;SDS011;52631;42.208;24.656;2023-11-22T07:46:13;16.63;;;9.30;;
65855;SDS011;52631;42.208;24.656;2023-11-22T07:48:38;19.15;;;10.40;;
65855;SDS011;52631;42.208;24.656;2023-11-22T07:51:06;17.17;;;10.35;;
65855;SDS011;52631;42.208;24.656;2023-11-22T07:53:32;16.45;;;10.38;;
65855;SDS011;52631;42.208;24.656;2023-11-22T07:56:00;21.00;;;11.02;;
65855;SDS011;52631;42.208;24.656;2023-11-22T07:58:29;27.67;;;13.25;;
65855;SDS011;52631;42.208;24.656;2023-11-22T08:00:56;20.02;;;12.88;;
65855;SDS011;52631;42.208;24.656;2023-11-22T08:03:21;17.48;;;11.57;;
65855;SDS011;52631;42.208;24.656;2023-11-22T08:05:50;18.73;;;10.43;;
65855;SDS011;52631;42.208;24.656;2023-11-22T08:08:20;21.52;;;12.05;;
65855;SDS011;52631;42.208;24.656;2023-11-22T08:10:49;31.25;;;15.05;;
65855;SDS011;52631;42.208;24.656;2023-11-22T08:13:19;29.52;;;15.10;;
65855;SDS011;52631;42.208;24.656;2023-11-22T08:15:45;24.50;;;12.85;;
65855;SDS011;52631;42.208;24.656;2023-11-22T08:18:11;23.45;;;13.23;;
65855;SDS011;52631;42.208;24.656;2023-11-22T08:20:37;27.33;;;14.68;;
65855;SDS011;52631;42.208;24.656;2023-11-22T08:23:03;24.95;;;13.60;;
65855;SDS011;52631;42.208;24.656;2023-11-22T08:25:31;21.55;;;12.27;;
65855;SDS011;52631;42.208;24.656;2023-11-22T08:27:56;25.15;;;14.23;;
65855;SDS011;52631;42.208;24.656;2023-11-22T08:30:22;25.85;;;13.15;;
65855;SDS011;52631;42.208;24.656;2023-11-22T08:32:48;22.75;;;13.15;;
65855;SDS011;52631;42.208;24.656;2023-11-22T08:35:18;31.43;;;15.73;;
65855;SDS011;52631;42.208;24.656;2023-11-22T08:37:47;27.40;;;15.35;;
65855;SDS011;52631;42.208;24.656;2023-11-22T08:40:13;30.92;;;14.27;;
65855;SDS011;52631;42.208;24.656;2023-11-22T08:42:45;28.48;;;14.15;;
65855;SDS011;52631;42.208;24.656;2023-11-22T08:45:11;28.35;;;15.82;;
65855;SDS011;52631;42.208;24.656;2023-11-22T08:47:37;27.73;;;14.55;;
65855;SDS011;52631;42.208;24.656;2023-11-22T08:50:05;26.52;;;13.98;;
65855;SDS011;52631;42.208;24.656;2023-11-22T08:52:31;33.13;;;15.88;;
65855;SDS011;52631;42.208;24.656;2023-11-22T08:54:57;32.25;;;15.98;;
65855;SDS011;52631;42.208;24.656;2023-11-22T08:57:22;30.70;;;15.90;;
65855;SDS011;52631;42.208;24.656;2023-11-22T08:59:48;29.95;;;14.70;;
65855;SDS011;52631;42.208;24.656;2023-11-22T09:02:14;23.95;;;14.07;;
65855;SDS011;52631;42.208;24.656;2023-11-22T09:04:40;26.98;;;14.50;;
65855;SDS011;52631;42.208;24.656;2023-11-22T09:07:07;25.35;;;14.85;;
65855;SDS011;52631;42.208;24.656;2023-11-22T09:09:32;21.35;;;12.82;;
65855;SDS011;52631;42.208;24.656;2023-11-22T09:11:59;24.35;;;13.02;;
65855;SDS011;52631;42.208;24.656;2023-11-22T09:14:26;23.38;;;12.15;;
65855;SDS011;52631;42.208;24.656;2023-11-22T09:16:51;22.67;;;13.32;;
65855;SDS011;52631;42.208;24.656;2023-11-22T09:19:23;22.58;;;12.63;;
65855;SDS011;52631;42.208;24.656;2023-11-22T09:21:50;22.05;;;12.40;;
65855;SDS011;52631;42.208;24.656;2023-11-22T09:24:16;21.75;;;13.15;;
65855;SDS011;52631;42.208;24.656;2023-11-22T09:26:41;19.05;;;11.52;;
65855;SDS011;52631;42.208;24.656;2023-11-22T09:29:08;19.17;;;12.13;;
65855;SDS011;52631;42.208;24.656;2023-11-22T09:31:37;18.80;;;12.00;;
65855;SDS011;52631;42.208;24.656;2023-11-22T09:34:03;20.25;;;11.68;;
65855;SDS011;52631;42.208;24.656;2023-11-22T09:36:32;19.60;;;12.02;;
65855;SDS011;52631;42.208;24.656;2023-11-22T09:38:59;16.67;;;10.38;;
65855;SDS011;52631;42.208;24.656;2023-11-22T09:41:24;19.23;;;10.48;;
65855;SDS011;52631;42.208;24.656;2023-11-22T09:43:52;17.65;;;11.07;;
65855;SDS011;52631;42.208;24.656;2023-11-22T09:46:18;16.45;;;9.82;;
65855;SDS011;52631;42.208;24.656;2023-11-22T09:48:46;17.55;;;10.88;;
65855;SDS011;52631;42.208;24.656;2023-11-22T09:51:20;13.93;;;9.23;;
65855;SDS011;52631;42.208;24.656;2023-11-22T09:56:21;14.23;;;9.80;;
65855;SDS011;52631;42.208;24.656;2023-11-22T09:58:48;14.50;;;8.75;;
65855;SDS011;52631;42.208;24.656;2023-11-22T10:01:19;17.13;;;8.13;;
65855;SDS011;52631;42.208;24.656;2023-11-22T10:03:46;13.93;;;8.57;;
65855;SDS011;52631;42.208;24.656;2023-11-22T10:06:11;14.25;;;8.30;;
65855;SDS011;52631;42.208;24.656;2023-11-22T10:08:36;13.90;;;8.45;;
65855;SDS011;52631;42.208;24.656;2023-11-22T10:11:03;13.57;;;8.77;;
65855;SDS011;52631;42.208;24.656;2023-11-22T10:13:29;14.27;;;8.45;;
65855;SDS011;52631;42.208;24.656;2023-11-22T10:15:54;16.42;;;8.63;;
65855;SDS011;52631;42.208;24.656;2023-11-22T10:18:20;15.43;;;9.35;;
65855;SDS011;52631;42.208;24.656;2023-11-22T10:20:49;14.73;;;8.77;;
65855;SDS011;52631;42.208;24.656;2023-11-22T10:23:15;14.23;;;9.35;;
65855;SDS011;52631;42.208;24.656;2023-11-22T10:25:45;13.45;;;8.57;;
65855;SDS011;52631;42.208;24.656;2023-11-22T10:28:15;13.55;;;8.35;;
65855;SDS011;52631;42.208;24.656;2023-11-22T10:30:45;12.80;;;8.30;;
65855;SDS011;52631;42.208;24.656;2023-11-22T10:33:11;12.70;;;7.00;;
65855;SDS011;52631;42.208;24.656;2023-11-22T10:35:43;14.68;;;8.52;;
65855;SDS011;52631;42.208;24.656;2023-11-22T10:38:09;14.60;;;8.52;;
65855;SDS011;52631;42.208;24.656;2023-11-22T10:40:35;15.10;;;8.77;;
65855;SDS011;52631;42.208;24.656;2023-11-22T10:43:02;13.13;;;8.57;;
65855;SDS011;52631;42.208;24.656;2023-11-22T10:45:29;14.95;;;8.45;;
65855;SDS011;52631;42.208;24.656;2023-11-22T10:47:59;15.70;;;8.88;;
65855;SDS011;52631;42.208;24.656;2023-11-22T10:50:25;15.35;;;9.85;;
65855;SDS011;52631;42.208;24.656;2023-11-22T10:52:52;14.80;;;9.35;;
65855;SDS011;52631;42.208;24.656;2023-11-22T10:55:20;17.33;;;9.68;;
65855;SDS011;52631;42.208;24.656;2023-11-22T10:57:47;16.88;;;10.27;;
65855;SDS011;52631;42.208;24.656;2023-11-22T11:00:16;16.55;;;10.02;;
65855;SDS011;52631;42.208;24.656;2023-11-22T11:05:32;19.48;;;9.50;;
65855;SDS011;52631;42.208;24.656;2023-11-22T11:08:09;18.67;;;9.98;;
65855;SDS011;52631;42.208;24.656;2023-11-22T11:10:42;19.40;;;10.35;;
65855;SDS011;52631;42.208;24.656;2023-11-22T11:13:09;19.33;;;11.18;;
65855;SDS011;52631;42.208;24.656;2023-11-22T11:15:35;16.05;;;10.07;;
65855;SDS011;52631;42.208;24.656;2023-11-22T11:18:01;16.88;;;10.68;;
65855;SDS011;52631;42.208;24.656;2023-11-22T11:20:32;19.15;;;11.25;;
65855;SDS011;52631;42.208;24.656;2023-11-22T11:23:01;17.92;;;10.70;;
65855;SDS011;52631;42.208;24.656;2023-11-22T11:25:30;15.90;;;9.85;;
65855;SDS011;52631;42.208;24.656;2023-11-22T11:27:58;19.17;;;11.43;;
65855;SDS011;52631;42.208;24.656;2023-11-22T11:33:08;16.70;;;9.77;;
65855;SDS011;52631;42.208;24.656;2023-11-22T11:35:38;17.67;;;10.68;;
65855;SDS011;52631;42.208;24.656;2023-11-22T11:38:07;15.95;;;10.30;;
65855;SDS011;52631;42.208;24.656;2023-11-22T11:40:34;17.13;;;10.52;;
65855;SDS011;52631;42.208;24.656;2023-11-22T11:43:01;16.45;;;10.73;;
65855;SDS011;52631;42.208;24.656;2023-11-22T11:45:27;18.02;;;11.35;;
65855;SDS011;52631;42.208;24.656;2023-11-22T11:47:54;16.70;;;10.00;;
65855;SDS011;52631;42.208;24.656;2023-11-22T11:50:22;18.50;;;9.50;;
65855;SDS011;52631;42.208;24.656;2023-11-22T11:52:47;15.65;;;9.32;;
65855;SDS011;52631;42.208;24.656;2023-11-22T11:55:13;15.07;;;9.43;;
65855;SDS011;52631;42.208;24.656;2023-11-22T11:57:39;17.88;;;10.45;;
65855;SDS011;52631;42.208;24.656;2023-11-22T12:00:07;17.13;;;10.30;;
65855;SDS011;52631;42.208;24.656;2023-11-22T12:02:34;16.02;;;10.00;;
65855;SDS011;52631;42.208;24.656;2023-11-22T12:05:00;18.73;;;10.73;;
65855;SDS011;52631;42.208;24.656;2023-11-22T12:07:31;17.92;;;9.60;;
65855;SDS011;52631;42.208;24.656;2023-11-22T12:09:57;14.57;;;8.85;;
65855;SDS011;52631;42.208;24.656;2023-11-22T12:12:22;18.52;;;9.35;;
65855;SDS011;52631;42.208;24.656;2023-11-22T12:14:47;15.93;;;9.98;;
65855;SDS011;52631;42.208;24.656;2023-11-22T12:17:14;21.52;;;11.18;;
65855;SDS011;52631;42.208;24.656;2023-11-22T12:19:41;15.38;;;9.85;;
65855;SDS011;52631;42.208;24.656;2023-11-22T12:22:08;13.88;;;9.73;;
65855;SDS011;52631;42.208;24.656;2023-11-22T12:24:34;17.05;;;10.10;;
65855;SDS011;52631;42.208;24.656;2023-11-22T12:27:00;18.30;;;10.63;;
65855;SDS011;52631;42.208;24.656;2023-11-22T12:29:25;21.50;;;11.05;;
65855;SDS011;52631;42.208;24.656;2023-11-22T12:31:51;17.30;;;10.32;;
65855;SDS011;52631;42.208;24.656;2023-11-22T12:34:18;18.98;;;10.50;;
65855;SDS011;52631;42.208;24.656;2023-11-22T12:36:45;16.55;;;10.65;;
65855;SDS011;52631;42.208;24.656;2023-11-22T12:39:12;19.15;;;10.75;;
65855;SDS011;52631;42.208;24.656;2023-11-22T12:41:45;17.30;;;11.48;;
65855;SDS011;52631;42.208;24.656;2023-11-22T12:44:12;17.38;;;10.93;;
65855;SDS011;52631;42.208;24.656;2023-11-22T12:49:26;18.75;;;11.30;;
65855;SDS011;52631;42.208;24.656;2023-11-22T12:51:53;17.13;;;10.73;;
65855;SDS011;52631;42.208;24.656;2023-11-22T12:54:25;19.02;;;10.55;;
65855;SDS011;52631;42.208;24.656;2023-11-22T12:56:51;18.63;;;10.98;;
65855;SDS011;52631;42.208;24.656;2023-11-22T12:59:23;18.20;;;10.70;;
65855;SDS011;52631;42.208;24.656;2023-11-22T13:01:49;20.55;;;12.25;;
65855;SDS011;52631;42.208;24.656;2023-11-22T13:04:15;17.50;;;11.90;;
65855;SDS011;52631;42.208;24.656;2023-11-22T13:06:41;19.35;;;12.55;;
65855;SDS011;52631;42.208;24.656;2023-11-22T13:09:07;16.45;;;11.18;;
65855;SDS011;52631;42.208;24.656;2023-11-22T13:11:39;18.33;;;11.90;;
65855;SDS011;52631;42.208;24.656;2023-11-22T13:14:05;20.50;;;11.80;;
65855;SDS011;52631;42.208;24.656;2023-11-22T13:16:31;19.85;;;11.90;;
65855;SDS011;52631;42.208;24.656;2023-11-22T13:18:57;20.33;;;11.68;;
65855;SDS011;52631;42.208;24.656;2023-11-22T13:21:22;20.77;;;11.80;;
65855;SDS011;52631;42.208;24.656;2023-11-22T13:23:48;19.15;;;11.80;;
65855;SDS011;52631;42.208;24.656;2023-11-22T13:26:15;19.02;;;12.18;;
65855;SDS011;52631;42.208;24.656;2023-11-22T13:28:41;22.27;;;12.93;;
65855;SDS011;52631;42.208;24.656;2023-11-22T13:31:07;21.00;;;12.38;;
65855;SDS011;52631;42.208;24.656;2023-11-22T13:33:33;24.13;;;13.50;;
65855;SDS011;52631;42.208;24.656;2023-11-22T13:35:59;28.13;;;13.68;;
65855;SDS011;52631;42.208;24.656;2023-11-22T13:38:25;22.38;;;13.48;;
65855;SDS011;52631;42.208;24.656;2023-11-22T13:40:50;22.48;;;12.85;;
65855;SDS011;52631;42.208;24.656;2023-11-22T13:43:16;24.17;;;13.65;;
65855;SDS011;52631;42.208;24.656;2023-11-22T13:45:43;23.98;;;13.02;;
65855;SDS011;52631;42.208;24.656;2023-11-22T13:48:10;22.08;;;13.13;;
65855;SDS011;52631;42.208;24.656;2023-11-22T13:50:36;23.63;;;13.73;;
65855;SDS011;52631;42.208;24.656;2023-11-22T13:53:02;23.10;;;13.88;;
65855;SDS011;52631;42.208;24.656;2023-11-22T13:55:29;25.25;;;13.18;;
65855;SDS011;52631;42.208;24.656;2023-11-22T13:57:56;27.08;;;14.00;;
65855;SDS011;52631;42.208;24.656;2023-11-22T14:00:23;25.83;;;14.07;;
65855;SDS011;52631;42.208;24.656;2023-11-22T14:02:54;20.75;;;13.52;;
65855;SDS011;52631;42.208;24.656;2023-11-22T14:05:21;21.02;;;13.10;;
65855;SDS011;52631;42.208;24.656;2023-11-22T14:07:47;25.80;;;13.52;;
65855;SDS011;52631;42.208;24.656;2023-11-22T14:10:14;18.50;;;11.38;;
65855;SDS011;52631;42.208;24.656;2023-11-22T14:12:41;20.63;;;12.77;;
65855;SDS011;52631;42.208;24.656;2023-11-22T14:15:08;26.17;;;13.75;;
65855;SDS011;52631;42.208;24.656;2023-11-22T14:17:35;24.55;;;13.45;;
65855;SDS011;52631;42.208;24.656;2023-11-22T14:20:03;27.77;;;14.80;;
65855;SDS011;52631;42.208;24.656;2023-11-22T14:22:30;24.08;;;14.30;;